Sand Lake, MI (49343)

2:27 AM EDT on August 29, 2015 (GMT -0400)
SE Cedar Springs | | Change Station
CLOSE
Current Station
Personal Weather Station
Location: Cedar Springs, MI
Elevation: 865 ft
Nearby Weather Stations

Elev 865 ft 43.19 °N, 85.51 °W | Updated 8 seconds ago

Rain
Rain
60.4 °F
Feels Like 60.4 °F
N
2.0
Wind Variable Wind from SW
Gusts 2.0 mph

Today
High -- | Low -- °F
--% Chance of Precip.
Yesterday
High -- | Low -- °F
Precip. -- in
7:02 AM 8:22 PM
Full, 100% visible
Pressure 30.13 in
Visibility 7.0 miles
Clouds Few 3700 ft
Mostly Cloudy 9000 ft
Overcast 11000 ft
Dew Point 59 °F
Humidity 96%
Rainfall 0.09 in
Snow Depth Not available.
UV 0 out of 12
Pollen 9.70 out of 12
Air Quality Not available.
Flu Activity Not available.
METAR KGRR 290553Z AUTO 04006KT 7SM -RA FEW037 BKN090 OVC110 18/18 A3014 RMK AO2 SLP202 P0000 60003 T01830178 10217 20183 50002
Pressure 30.13 in
Visibility 7.0 miles
Clouds Few 3700 ft
Mostly Cloudy 9000 ft
Overcast 11000 ft
Dew Point 59 °F
Humidity 96%
Rainfall 0.09 in
Snow Depth Not available.
UV 0 out of 12
Pollen 9.70 out of 12
Air Quality Not available.
Flu Activity Not available.
METAR KGRR 290553Z AUTO 04006KT 7SM -RA FEW037 BKN090 OVC110 18/18 A3014 RMK AO2 SLP202 P0000 60003 T01830178 10217 20183 50002

10-Day Weather Forecast

×

Almanac

Astronomy

Aug. 29, 2015 Rise Set
Actual Time
Civil Twilight
Nautical Twilight
Astronomical Twilight
Moon
Length of Visible Light
Length of Day
Tomorrow will be .
, % of the Moon is Illuminated

Today's Extremes

State Highs State Lows

Community

WunderPhotos

Upload Photos

1,850,622 photos uploaded!

WunderBlogs® & News

Nearby

Air Quality

  Air Quality AQ Index Pollutant
Not available.

Snow Depth

Station Depth Elevation

Earthquake Activity

City Distance Mag. Time & Date
Minimum magnitude displayed is 2.5.

Coastal Water Temperatures

Place Temperature

Stations

Nearby Weather Stations

Station Location Temp. Windchill Dew Point Humidity Wind Precip. Elev Updated Type